Latest Coastal Weather Observations for Milingimbi

IDD60701

Issued at 2:41 am CST Monday 15 February 2016 (issued every 10 minutes, with the page automatically refreshed every 10 minutes)

About coastal observations | Map of coastal stations | Coastal observations for NT | Marine services | Other Formats
Station Details ID: 014404 Name: MILINGIMBI AIRPORT Lat: -12.09 Lon: 134.89 Height: 15.0 m
Data from the previous 72 hours. | See also: Recent months at Milingimbi
Date/Time
CST
Temp

°C
Wind Pressure Rain
since 9am
mm
Weather Cloud Vis
km
Sea
Height
m
Swell
Dir
 
Speed
knots
Gust
knots
hPa Trend Height
m
Period
s
Dir
15/02:30am 27.5 WSW 1 4 1008.0 - 0.0 - - - - - - -
15/02:00am 27.7 WSW 3 3 1008.4 - 0.0 - - - - - - -
15/01:30am 28.1 SW 4 4 1008.7 - 0.0 - - - - - - -
15/01:00am 29.0 W 6 9 1008.9 - 0.0 - - - - - - -
15/12:30am 29.5 NNW 4 6 1009.3 - 0.0 - - - - - - -
15/12:00am 29.6 NW 4 7 1009.8 - 0.0 - - - - - - -
 
Date/Time
CST
Temp

°C
Wind Pressure Rain
since 9am
mm
Weather Cloud Vis
km
Sea
Height
m
Swell
Dir
 
Speed
knots
Gust
knots
hPa Trend Height
m
Period
s
Dir
14/11:30pm 29.9 NW 5 7 1010.2 - 0.0 - - - - - - -
14/11:00pm 29.9 NW 5 8 1010.3 - 0.0 - - - - - - -
14/10:30pm 29.9 NNW 5 7 1010.2 - 0.0 - - - - - - -
14/10:00pm 30.1 NNW 6 9 1009.7 - 0.0 - - - - - - -
14/09:30pm 30.2 NNW 6 11 1009.2 - 0.0 - - - - - - -
14/09:00pm 30.1 NNW 5 8 1008.9 - 0.0 - - - - - - -
14/08:30pm 30.4 NNW 7 11 1008.7 - 0.0 - - - - - - -
14/08:00pm 30.5 NNW 6 9 1008.3 - 0.0 - - - - - - -
14/07:30pm 30.5 NNW 5 9 1008.0 - 0.0 - - - - - - -
14/07:00pm 30.2 N 4 6 1007.4 - 0.0 - - - - - - -
14/06:30pm 30.5 WNW 6 10 1007.0 - 0.0 - - - - - - -
14/06:00pm 30.9 NNW 6 10 1006.5 - 0.0 - - - - - - -
14/05:30pm 31.3 NNW 7 11 1006.3 - 0.0 - - - - - - -
14/05:00pm 31.5 N 7 12 1005.5 - 0.0 - - - - - - -
14/04:30pm 31.9 N 6 10 1005.6 - 0.0 - - - - - - -
14/04:00pm 33.0 N 9 13 1005.4 - 0.0 - - - - - - -
14/03:30pm 32.7 N 10 16 1005.7 - 0.0 - - - - - - -
14/03:00pm 33.7 N 7 13 1005.9 - 0.0 - - - - - - -
14/02:30pm 34.2 N 9 13 1005.9 - 0.0 - - - - - - -
14/02:00pm 33.6 N 9 15 1006.3 - 0.0 - - - - - - -
14/01:30pm 34.4 NNW 8 14 1006.7 - 0.0 - - - - - - -
14/01:00pm 35.0 NNW 6 10 1007.0 - 0.0 - - - - - - -
14/12:30pm 33.9 N 6 10 1007.5 - 0.0 - - - - - - -
14/12:00pm 34.5 WNW 5 10 1007.7 - 0.0 - - - - - - -
14/11:30am 34.5 W 5 9 1008.1 - 0.0 - - - - - - -
14/11:00am 33.9 WSW 7 10 1008.4 - 0.0 - - - - - - -
14/10:30am 33.5 W 8 12 1008.6 - 0.0 - - - - - - -
14/10:00am 32.9 W 8 12 1009.1 - 0.0 - - - - - - -
14/09:30am 32.4 W 10 13 1009.0 - 0.0 - - - - - - -
14/09:00am 31.2 W 10 13 1008.8 - 0.0 - - - - - - -
14/08:30am 30.3 W 7 11 1008.8 - 0.0 - - - - - - -
14/08:00am 29.2 W 7 10 1008.7 - 0.0 - - - - - - -
14/07:30am 28.0 W 4 5 1008.4 - 0.0 - - - - - - -
14/07:00am 27.6 W 5 7 1008.0 - 0.0 - - - - - - -
14/06:30am 27.3 WSW 4 6 1007.6 - 0.0 - - - - - - -
14/06:00am 27.6 W 4 6 1007.3 - 0.0 - - - - - - -
14/05:30am 27.9 W 4 5 1006.9 - 0.0 - - - - - - -
14/05:00am 27.8 W 3 4 1006.6 - 0.0 - - - - - - -
14/04:30am 28.1 CALM 0 0 1006.5 - 0.0 - - - - - - -
14/04:00am 27.9 WSW 2 3 1006.6 - 0.0 - - - - - - -
14/03:30am 28.0 W 2 4 1006.7 - 0.0 - - - - - - -
14/03:00am 27.8 W 1 4 1006.9 - 0.0 - - - - - - -
14/02:30am 28.1 W 3 4 1007.2 - 0.0 - - - - - - -
14/02:00am 28.1 CALM 0 0 1007.3 - 0.0 - - - - - - -
14/01:30am 28.2 CALM 0 2 1007.7 - 0.0 - - - - - - -
14/01:00am 28.6 CALM 0 0 1008.0 - 0.0 - - - - - - -
14/12:30am 28.7 NNE 2 4 1008.4 - 0.0 - - - - - - -
14/12:00am 28.6 NE 3 4 1008.6 - 0.0 - - - - - - -
 
Date/Time
CST
Temp

°C
Wind Pressure Rain
since 9am
mm
Weather Cloud Vis
km
Sea
Height
m
Swell
Dir
 
Speed
knots
Gust
knots
hPa Trend Height
m
Period
s
Dir
13/11:30pm 28.7 NE 1 3 1009.1 - 0.0 - - - - - - -
13/11:00pm 28.9 CALM 0 0 1009.4 - 0.0 - - - - - - -
13/10:30pm 29.0 CALM 0 0 1009.4 - 0.0 - - - - - - -
13/10:00pm 29.1 CALM 0 0 1009.0 - 0.0 - - - - - - -
13/09:30pm 29.5 CALM 0 0 1008.6 - 0.0 - - - - - - -
13/09:00pm 29.6 CALM 0 0 1008.1 - 0.0 - - - - - - -
13/08:30pm 29.9 CALM 0 3 1007.8 - 0.0 - - - - - - -
13/08:00pm 30.8 N 3 6 1007.6 - 0.0 - - - - - - -
13/07:30pm 30.9 N 3 5 1007.4 - 0.0 - - - - - - -
13/07:00pm 31.4 NNE 4 6 1007.0 - 0.0 - - - - - - -
13/06:30pm 32.3 N 4 7 1006.7 - 0.0 - - - - - - -
13/06:00pm 33.0 N 5 9 1006.2 - 0.0 - - - - - - -
13/05:30pm 32.7 N 6 8 1006.2 - 0.0 - - - - - - -
13/05:00pm 33.1 N 7 11 1005.7 - 0.0 - - - - - - -
13/04:30pm 33.6 N 7 11 1005.6 - 0.0 - - - - - - -
13/04:00pm 33.5 N 6 9 1005.5 - 0.0 - - - - - - -
13/03:30pm 35.4 E 5 7 1005.6 - 0.0 - - - - - - -
13/03:00pm 35.7 E 7 10 1005.6 - 0.0 - - - - - - -
13/02:30pm 35.5 ESE 6 14 1006.0 - 0.0 - - - - - - -
13/02:00pm 35.4 E 6 11 1006.1 - 0.0 - - - - - - -
13/01:30pm 35.0 E 6 10 1006.3 - 0.0 - - - - - - -
13/01:00pm 34.9 E 6 9 1006.5 - 0.0 - - - - - - -
13/12:30pm 34.3 NNE 2 5 1007.1 - 0.0 - - - - - - -
13/12:00pm 34.6 SE 5 8 1007.4 - 0.0 - - - - - - -
13/11:30am 33.3 SSW 3 7 1007.8 - 0.0 - - - - - - -
13/11:00am 33.0 S 3 6 1008.4 - 0.0 - - - - - - -
13/10:30am 32.2 S 3 6 1008.5 - 0.0 - - - - - - -
13/10:00am 31.6 SSW 5 8 1008.8 - 0.0 - - - - - - -
13/09:30am 31.3 SSW 5 8 1009.1 - 0.0 - - - - - - -
13/09:00am 30.3 SW 4 7 1008.7 - 0.2 - - - - - - -
13/08:30am 29.5 WSW 5 7 1008.6 - 0.2 - - - - - - -
13/08:00am 28.6 WSW 5 6 1008.7 - 0.2 - - - - - - -
13/07:30am 27.3 WSW 5 7 1008.3 - 0.2 - - - - - - -
13/07:00am 26.9 W 4 5 1008.2 - 0.2 - - - - - - -
13/06:30am 26.8 W 4 5 1008.1 - 0.2 - - - - - - -
13/06:00am 26.8 W 4 6 1007.8 - 0.2 - - - - - - -
13/05:30am 27.0 SW 4 5 1007.5 - 0.2 - - - - - - -
13/05:00am 27.1 SSW 4 5 1007.4 - 0.2 - - - - - - -
13/04:30am 27.1 SSW 4 6 1006.9 - 0.2 - - - - - - -
13/04:00am 27.1 SSW 4 5 1007.0 - 0.2 - - - - - - -
13/03:30am 27.1 WSW 3 4 1007.0 - 0.2 - - - - - - -
13/03:00am 27.0 SW 3 4 1006.6 - 0.2 - - - - - - -
13/02:30am 27.0 SSW 3 5 1006.5 - 0.2 - - - - - - -
13/02:00am 27.3 W 6 7 1007.0 - 0.2 - - - - - - -
13/01:30am 27.7 W 5 6 1007.6 - 0.2 - - - - - - -
13/01:00am 27.9 WNW 3 5 1008.1 - 0.2 - - - - - - -
13/12:30am 27.7 NNW 1 3 1008.3 - 0.2 - - - - - - -
13/12:00am 27.7 NW 3 4 1008.5 - 0.2 - - - - - - -
 
Date/Time
CST
Temp

°C
Wind Pressure Rain
since 9am
mm
Weather Cloud Vis
km
Sea
Height
m
Swell
Dir
 
Speed
knots
Gust
knots
hPa Trend Height
m
Period
s
Dir
12/11:30pm 27.7 ESE 1 3 1008.3 - 0.2 - - - - - - -
12/11:00pm 27.5 CALM 0 0 1008.3 - 0.2 - - - - - - -
12/10:30pm 27.4 CALM 0 0 1008.8 - 0.2 - - - - - - -
12/10:00pm 27.5 WSW 3 5 1008.4 - 0.2 - - - - - - -
12/09:30pm 27.2 SW 4 5 1008.1 - 0.2 - - - - - - -
12/09:00pm 27.7 S 6 10 1008.1 - 0.0 - - - - - - -
12/08:30pm 28.9 SSE 9 13 1007.7 - 0.0 - - - - - - -
12/08:00pm 29.9 SSW 3 4 1007.3 - 0.0 - - - - - - -
12/07:30pm 30.1 WNW 3 5 1006.8 - 0.0 - - - - - - -
12/07:00pm 30.4 NW 5 7 1006.7 - 0.0 - - - - - - -
12/06:30pm 30.8 NNW 5 8 1005.9 - 0.0 - - - - - - -
12/06:00pm 31.2 NNW 6 9 1005.4 - 0.0 - - - - - - -
12/05:30pm 31.2 NNW 6 9 1005.3 - 0.0 - - - - - - -
12/05:00pm 31.2 NNW 6 9 1005.2 - 0.0 - - - - - - -
12/04:30pm 31.1 NNW 6 9 1005.4 - 0.0 - - - - - - -
12/04:00pm 31.1 NNW 5 8 1005.5 - 0.0 - - - - - - -
12/03:30pm 30.9 WNW 4 6 1005.6 - 0.0 - - - - - - -
12/03:00pm 31.0 N 6 9 1005.4 - 0.0 - - - - - - -
12/02:30pm 32.7 N 7 11 1005.4 - 0.0 - - - - - - -
12/02:00pm 33.1 N 6 10 1005.6 - 0.0 - - - - - - -
12/01:30pm 33.8 ENE 5 8 1006.2 - 0.0 - - - - - - -
12/01:00pm 33.6 SE 5 8 1006.6 - 0.0 - - - - - - -
12/12:30pm 33.6 SSE 5 9 1007.2 - 0.0 - - - - - - -
12/12:00pm 32.5 ESE 6 9 1007.6 - 0.0 - - - - - - -
12/11:30am 32.2 SSE 4 7 1008.2 - 0.0 - - - - - - -
12/11:00am 31.7 S 3 5 1008.4 - 0.0 - - - - - - -
12/10:30am 30.7 WSW 3 5 1008.8 - 0.0 - - - - - - -
12/10:00am 30.3 ESE 3 6 1009.1 - 0.0 - - - - - - -
12/09:30am 29.7 E 3 5 1008.9 - 0.0 - - - - - - -
12/09:00am 29.5 SE 5 6 1008.8 - 0.0 - - - - - - -
12/08:30am 29.2 S 5 7 1009.0 - 0.0 - - - - - - -
12/08:00am 28.4 S 4 6 1008.8 - 0.0 - - - - - - -
12/07:30am 27.0 S 4 5 1008.5 - 0.0 - - - - - - -
12/07:00am 26.5 S 3 5 1008.2 - 0.0 - - - - - - -
12/06:30am 26.5 WSW 3 4 1007.7 - 0.0 - - - - - - -
12/06:00am 26.8 WSW 4 5 1007.4 - 0.0 - - - - - - -
12/05:30am 26.9 SSW 3 4 1007.4 - 0.0 - - - - - - -
12/05:00am 26.9 SSW 2 4 1007.1 - 0.0 - - - - - - -
12/04:30am 26.9 CALM 0 0 1007.1 - 0.0 - - - - - - -
12/04:00am 27.0 CALM 0 0 1006.8 - 0.0 - - - - - - -
12/03:30am 26.9 CALM 0 0 1006.6 - 0.0 - - - - - - -
12/03:00am 26.8 CALM 0 0 1006.3 - 0.0 - - - - - - -

Other Formats:

Comma delimited format used in spreadsheet applications
http://www.bom.gov.au/fwo/IDD60701/IDD60701.94140.axf

JavaScript Object Notation format (JSON) in row-major order
http://www.bom.gov.au/fwo/IDD60701/IDD60701.94140.json